Time;durP1;ratioP1;P1;durP2;ratioP2;P2;SDS_P1;SDS_P2;PMS_P1;PMS_P2;Temp;Humidity;BMP_temperature;BMP_pressure;BME280_temperature;BME280_humidity;BME280_pressure;Samples;Min_cycle;Max_cycle;Signal;HPM_P1;HPM_P2
2021/05/06 00:32:51;;;;;;;1.67;1.10;;;14.20;99.90;;;;;;5031302;28;20308;-83
2021/05/06 00:35:17;;;;;;;4.88;1.17;;;14.10;99.90;;;;;;5031556;28;20036;-81
2021/05/06 00:38:08;;;;;;;4.53;1.27;;;14.10;99.90;;;;;;5013670;28;20037;-75
2021/05/06 00:55:12;;;;;;;3.40;1.38;;;14.00;99.90;;;;;;5033030;28;20099;-73
2021/05/06 01:00:29;;;;;;;2.28;1.23;;;14.00;99.90;;;;;;5032974;28;20057;-73
2021/05/06 01:03:17;;;;;;;2.60;1.00;;;14.00;99.90;;;;;;5032235;28;20048;-76
2021/05/06 01:05:49;;;;;;;4.32;1.10;;;14.10;99.90;;;;;;5032929;28;20060;-83
2021/05/06 01:11:34;;;;;;;1.70;1.30;;;14.00;99.90;;;;;;5032556;28;20604;-74
2021/05/06 01:13:36;;;;;;;1.30;1.15;;;14.00;99.90;;;;;;5021850;28;20437;-74
2021/05/06 01:16:03;;;;;;;1.90;1.02;;;14.10;99.90;;;;;;5014715;28;20078;-74
2021/05/06 01:18:28;;;;;;;7.78;1.33;;;14.10;99.90;;;;;;5015150;28;20065;-74
2021/05/06 01:20:58;;;;;;;2.88;1.58;;;14.20;99.90;;;;;;5032086;28;20057;-72
2021/05/06 01:23:26;;;;;;;3.85;1.23;;;14.20;99.90;;;;;;5032371;28;20385;-73
2021/05/06 01:25:55;;;;;;;3.42;1.40;;;14.20;99.90;;;;;;5032458;28;20030;-75
2021/05/06 01:28:26;;;;;;;2.15;1.08;;;14.30;99.90;;;;;;5031831;28;20112;-74
2021/05/06 01:31:06;;;;;;;5.30;1.23;;;14.20;99.90;;;;;;5025835;28;20451;-74
2021/05/06 01:36:06;;;;;;;4.10;1.27;;;14.30;99.90;;;;;;5032372;28;20044;-75
2021/05/06 01:49:15;;;;;;;10.23;1.60;;;13.80;99.90;;;;;;5031980;28;20064;-82
2021/05/06 02:00:21;;;;;;;9.65;1.52;;;13.50;99.90;;;;;;5000333;28;20026;-73
2021/05/06 02:02:47;;;;;;;3.75;1.17;;;13.50;99.90;;;;;;5025523;28;20026;-77
2021/05/06 02:05:14;;;;;;;5.35;1.25;;;13.50;99.90;;;;;;5032303;28;20040;-74
2021/05/06 02:07:42;;;;;;;2.45;1.23;;;13.50;99.90;;;;;;5032109;28;20034;-73
2021/05/06 02:10:11;;;;;;;5.60;1.40;;;13.50;99.90;;;;;;5031635;28;20060;-79
2021/05/06 02:12:38;;;;;;;4.28;1.10;;;13.40;99.90;;;;;;5031929;28;20049;-74
2021/05/06 02:15:11;;;;;;;7.40;1.38;;;13.40;99.90;;;;;;5033897;28;20107;-73
2021/05/06 02:17:38;;;;;;;3.03;1.25;;;13.40;99.90;;;;;;5018606;28;20041;-74
2021/05/06 02:20:05;;;;;;;12.85;1.20;;;13.40;99.90;;;;;;5035816;28;20033;-72
2021/05/06 02:22:31;;;;;;;5.55;1.30;;;13.30;99.90;;;;;;5032945;28;20022;-77
2021/05/06 02:24:57;;;;;;;2.75;1.38;;;13.20;99.90;;;;;;5035094;28;20029;-74
2021/05/06 02:27:23;;;;;;;3.85;1.48;;;13.30;99.90;;;;;;5035518;28;20029;-74
2021/05/06 02:29:49;;;;;;;1.58;1.00;;;13.20;99.90;;;;;;5035410;28;20100;-76
2021/05/06 02:32:15;;;;;;;4.55;1.63;;;13.20;99.90;;;;;;5035564;28;20120;-75
2021/05/06 02:34:41;;;;;;;2.38;1.27;;;13.20;99.90;;;;;;5035461;28;20102;-76
2021/05/06 02:37:11;;;;;;;4.72;1.40;;;13.20;99.90;;;;;;5034993;28;20087;-75
2021/05/06 02:39:37;;;;;;;7.07;1.63;;;13.20;99.90;;;;;;5035102;28;20029;-83
2021/05/06 02:42:03;;;;;;;8.95;1.52;;;13.30;99.90;;;;;;5034811;28;20040;-76
2021/05/06 02:44:28;;;;;;;8.18;1.40;;;13.30;99.90;;;;;;5034881;28;20040;-78
2021/05/06 02:46:55;;;;;;;7.15;1.52;;;13.30;99.90;;;;;;5035242;28;20486;-79
2021/05/06 02:49:22;;;;;;;1.73;1.02;;;13.20;99.90;;;;;;5034692;28;20108;-73
2021/05/06 02:51:54;;;;;;;4.65;1.27;;;13.20;99.90;;;;;;5034538;28;20045;-82
2021/05/06 02:54:21;;;;;;;7.20;1.50;;;13.20;99.90;;;;;;5034361;28;20408;-77
2021/05/06 02:57:00;;;;;;;10.02;2.42;;;13.30;99.90;;;;;;5034251;28;20044;-81
2021/05/06 03:04:39;;;;;;;5.70;1.63;;;13.30;99.90;;;;;;5034266;28;20048;-75
2021/05/06 03:07:06;;;;;;;2.95;1.20;;;13.30;99.90;;;;;;5033115;28;20029;-82
2021/05/06 03:15:09;;;;;;;1.60;1.00;;;13.30;99.90;;;;;;5034439;28;20045;-82
2021/05/06 03:23:03;;;;;;;4.03;1.35;;;13.20;99.90;;;;;;5033660;28;20139;-80
2021/05/06 03:25:30;;;;;;;2.63;1.10;;;13.20;99.90;;;;;;5034241;28;20481;-83
2021/05/06 04:18:36;;;;;;;5.80;1.25;;;13.00;99.90;;;;;;5032758;28;20044;-82
2021/05/06 04:37:03;;;;;;;6.03;1.10;;;12.90;99.90;;;;;;5032719;28;20167;-82
2021/05/06 04:39:45;;;;;;;7.15;1.10;;;12.80;99.90;;;;;;5032845;28;20049;-81
2021/05/06 04:55:37;;;;;;;2.75;1.02;;;12.80;99.90;;;;;;5032896;28;20044;-78
2021/05/06 05:05:45;;;;;;;6.38;1.08;;;12.90;99.90;;;;;;5032532;28;20116;-79
2021/05/06 05:08:14;;;;;;;3.67;1.45;;;12.90;99.90;;;;;;5025831;28;20037;-81
2021/05/06 05:20:50;;;;;;;15.60;1.35;;;13.00;99.90;;;;;;5032384;28;20036;-80
2021/05/06 05:23:31;;;;;;;3.03;0.93;;;13.10;99.90;;;;;;5031537;28;20459;-77
2021/05/06 05:26:01;;;;;;;5.93;0.90;;;13.10;99.90;;;;;;5031500;28;20037;-81
2021/05/06 05:28:27;;;;;;;1.95;1.70;;;13.10;99.90;;;;;;5028958;28;20063;-73
2021/05/06 05:30:53;;;;;;;2.33;1.15;;;13.20;99.90;;;;;;5028319;28;20478;-79
2021/05/06 05:33:21;;;;;;;1.48;1.13;;;13.20;99.90;;;;;;5019214;28;20437;-76
2021/05/06 05:56:24;;;;;;;25.55;1.27;;;13.30;99.90;;;;;;5025875;28;20117;-80
2021/05/06 05:58:51;;;;;;;4.35;1.08;;;13.40;99.90;;;;;;5031160;28;20053;-79
2021/05/06 06:01:17;;;;;;;1.55;0.85;;;13.30;99.90;;;;;;5031284;28;20084;-79
2021/05/06 06:03:43;;;;;;;1.55;1.05;;;13.30;99.90;;;;;;5031524;28;20116;-78
2021/05/06 06:06:09;;;;;;;5.78;1.10;;;13.30;99.90;;;;;;5031450;28;20108;-81
2021/05/06 06:08:36;;;;;;;5.63;1.73;;;13.40;99.90;;;;;;5032253;28;20025;-78
2021/05/06 06:11:05;;;;;;;19.48;1.85;;;13.40;99.90;;;;;;5031287;28;20048;-77
2021/05/06 06:13:31;;;;;;;6.63;1.20;;;13.50;99.90;;;;;;5031764;28;20169;-77
2021/05/06 06:16:02;;;;;;;7.18;0.95;;;13.50;99.90;;;;;;5031740;28;20042;-77
2021/05/06 06:21:05;;;;;;;8.00;1.45;;;13.70;99.90;;;;;;5031370;28;20037;-79
2021/05/06 06:23:31;;;;;;;5.38;1.00;;;13.70;99.90;;;;;;5031660;28;20030;-77
2021/05/06 06:25:57;;;;;;;2.88;0.98;;;13.60;99.90;;;;;;5025274;28;20036;-74
2021/05/06 06:28:23;;;;;;;2.17;1.10;;;13.60;99.90;;;;;;5031475;28;20026;-79
2021/05/06 06:30:49;;;;;;;3.83;0.90;;;13.60;99.90;;;;;;5031132;28;20052;-73
2021/05/06 06:33:16;;;;;;;6.65;0.95;;;13.50;99.90;;;;;;5031318;28;20083;-80
2021/05/06 06:35:42;;;;;;;5.63;1.13;;;13.50;99.90;;;;;;5031093;28;20029;-79
2021/05/06 06:38:07;;;;;;;2.10;1.05;;;13.60;99.90;;;;;;5031689;28;20535;-82
2021/05/06 06:40:33;;;;;;;1.30;1.15;;;13.60;99.90;;;;;;5031313;28;20034;-82
2021/05/06 06:42:59;;;;;;;7.93;1.50;;;13.60;99.90;;;;;;5031457;28;20045;-80
2021/05/06 06:45:25;;;;;;;3.08;0.95;;;13.60;99.90;;;;;;5031806;28;20034;-78
2021/05/06 06:47:55;;;;;;;1.98;1.20;;;13.50;99.90;;;;;;5030245;28;20056;-81
2021/05/06 06:50:21;;;;;;;10.43;1.90;;;13.40;99.90;;;;;;5031018;28;20481;-81
2021/05/06 06:52:48;;;;;;;5.22;1.17;;;13.40;99.90;;;;;;5031765;28;20450;-80
2021/05/06 06:55:14;;;;;;;7.97;1.23;;;13.50;99.90;;;;;;5031549;28;20033;-77
2021/05/06 06:57:39;;;;;;;2.78;1.40;;;13.50;99.90;;;;;;5030948;28;20026;-81
2021/05/06 07:00:06;;;;;;;2.63;1.20;;;13.50;99.90;;;;;;5030443;28;20025;-81
2021/05/06 07:02:32;;;;;;;5.22;1.40;;;13.60;99.90;;;;;;5035555;28;20144;-80
2021/05/06 07:04:58;;;;;;;4.95;1.20;;;13.70;99.90;;;;;;5033171;28;20049;-80
2021/05/06 07:07:24;;;;;;;15.35;1.58;;;13.70;99.90;;;;;;5034921;28;20083;-83
2021/05/06 07:09:49;;;;;;;4.63;1.30;;;13.70;99.90;;;;;;5034775;28;20480;-80
2021/05/06 07:12:15;;;;;;;6.15;1.33;;;13.80;99.90;;;;;;5033526;28;20041;-73
2021/05/06 07:14:42;;;;;;;4.20;1.60;;;14.00;99.90;;;;;;5035795;28;20807;-82
2021/05/06 07:17:07;;;;;;;13.60;2.15;;;14.10;99.90;;;;;;5029371;28;20478;-72
2021/05/06 07:19:35;;;;;;;6.55;1.52;;;14.20;99.90;;;;;;5010094;28;20037;-85
2021/05/06 07:22:01;;;;;;;12.00;2.10;;;14.20;99.90;;;;;;5040272;28;20156;-82
2021/05/06 07:24:27;;;;;;;11.07;1.38;;;14.20;99.90;;;;;;5027114;28;20113;-77
2021/05/06 07:26:52;;;;;;;3.35;1.58;;;14.10;99.90;;;;;;5037565;28;20029;-82
2021/05/06 07:29:20;;;;;;;8.32;1.52;;;14.20;99.90;;;;;;5034587;28;20072;-83
2021/05/06 07:31:47;;;;;;;15.38;1.90;;;14.10;99.90;;;;;;5033153;28;20037;-85
2021/05/06 07:34:13;;;;;;;3.58;1.30;;;14.00;99.90;;;;;;5025633;28;20504;-82
2021/05/06 07:36:39;;;;;;;17.33;1.63;;;14.00;99.90;;;;;;5028094;28;20050;-84
2021/05/06 07:39:05;;;;;;;14.95;1.95;;;14.00;99.90;;;;;;5032657;28;20033;-83
2021/05/06 07:41:32;;;;;;;4.18;1.50;;;14.00;99.90;;;;;;5036650;28;20034;-83
2021/05/06 07:43:58;;;;;;;7.38;1.58;;;14.00;99.90;;;;;;5031201;28;20469;-79
2021/05/06 07:46:24;;;;;;;5.03;2.10;;;13.90;99.90;;;;;;5036236;28;20029;-85
2021/05/06 07:48:54;;;;;;;5.00;1.88;;;14.00;99.90;;;;;;5032095;28;20065;-81
2021/05/06 07:51:20;;;;;;;11.52;1.83;;;14.00;99.90;;;;;;5032543;28;20041;-75
2021/05/06 07:56:12;;;;;;;16.00;2.25;;;14.00;99.90;;;;;;5026127;28;20034;-76
2021/05/06 07:58:38;;;;;;;5.50;1.52;;;13.90;99.90;;;;;;5026517;28;20161;-78
2021/05/06 08:01:03;;;;;;;6.03;1.75;;;13.90;99.90;;;;;;5031507;28;20029;-74
2021/05/06 08:03:29;;;;;;;9.63;1.65;;;14.10;99.90;;;;;;5032024;28;20095;-74
2021/05/06 08:05:58;;;;;;;4.38;1.88;;;14.20;99.90;;;;;;5032585;28;20029;-75
2021/05/06 08:08:25;;;;;;;8.38;1.67;;;14.30;99.90;;;;;;5032598;28;20057;-80
2021/05/06 08:10:54;;;;;;;8.02;1.38;;;14.30;99.90;;;;;;5013743;28;20045;-82
2021/05/06 08:13:21;;;;;;;5.03;1.45;;;14.30;99.90;;;;;;5029439;28;20500;-77
2021/05/06 08:15:48;;;;;;;6.55;1.60;;;14.20;99.90;;;;;;5035602;28;20088;-76
2021/05/06 08:18:14;;;;;;;3.45;1.52;;;14.20;99.90;;;;;;5031290;28;20394;-76
2021/05/06 08:20:41;;;;;;;10.93;1.70;;;14.20;99.90;;;;;;5030163;28;20044;-76
2021/05/06 08:23:11;;;;;;;14.40;1.73;;;14.20;99.90;;;;;;5031438;28;20517;-74
2021/05/06 08:25:37;;;;;;;20.02;1.83;;;14.20;99.90;;;;;;5027354;28;20390;-83
2021/05/06 08:28:04;;;;;;;4.82;1.60;;;14.20;99.90;;;;;;5032959;28;20040;-84
2021/05/06 08:30:30;;;;;;;7.78;1.83;;;14.10;99.90;;;;;;5026643;28;20107;-82
2021/05/06 08:32:56;;;;;;;4.95;1.83;;;14.00;99.90;;;;;;5027185;28;20060;-77
2021/05/06 08:35:22;;;;;;;8.07;2.35;;;14.00;99.90;;;;;;5032147;28;20089;-76
2021/05/06 08:37:48;;;;;;;31.58;2.22;;;14.10;99.90;;;;;;5032843;28;20056;-76
2021/05/06 08:40:13;;;;;;;5.82;1.77;;;14.20;99.90;;;;;;5027395;28;20087;-78
2021/05/06 08:42:40;;;;;;;3.25;1.55;;;14.30;99.90;;;;;;5035677;28;20060;-77
2021/05/06 08:45:06;;;;;;;7.85;1.77;;;14.50;99.90;;;;;;5031393;28;20065;-78
2021/05/06 08:47:33;;;;;;;7.35;2.17;;;14.80;99.90;;;;;;5032457;28;20631;-81
2021/05/06 08:49:59;;;;;;;4.57;1.70;;;15.00;99.90;;;;;;5027919;28;20045;-76
2021/05/06 08:52:26;;;;;;;5.32;1.52;;;15.10;99.90;;;;;;5031762;28;20524;-76
2021/05/06 08:54:53;;;;;;;13.80;2.15;;;15.30;99.90;;;;;;5031891;28;20120;-77
2021/05/06 08:57:21;;;;;;;9.73;2.47;;;15.40;99.90;;;;;;5031814;28;20029;-76
2021/05/06 08:59:47;;;;;;;9.40;1.50;;;15.60;99.90;;;;;;5026640;28;20112;-78
2021/05/06 09:02:13;;;;;;;11.60;1.75;;;15.80;99.90;;;;;;5015938;28;20157;-78
2021/05/06 09:04:39;;;;;;;10.65;1.85;;;16.00;99.90;;;;;;5023194;28;20041;-80
2021/05/06 09:07:10;;;;;;;5.88;1.63;;;16.00;99.90;;;;;;5032343;28;20026;-77
2021/05/06 09:09:57;;;;;;;4.35;1.90;;;16.10;99.90;;;;;;5043475;23;20036;-74
2021/05/06 09:12:37;;;;;;;5.10;1.50;;;16.10;99.90;;;;;;4990105;28;20572;-79
2021/05/06 09:15:16;;;;;;;2.10;1.63;;;16.10;99.90;;;;;;4992618;28;20034;-79
2021/05/06 09:17:42;;;;;;;4.82;1.75;;;16.10;99.90;;;;;;4992949;28;20034;-77
2021/05/06 09:20:22;;;;;;;5.93;1.45;;;16.10;99.90;;;;;;4991446;28;20041;-77
2021/05/06 09:22:50;;;;;;;26.65;2.13;;;16.20;99.90;;;;;;4992891;28;20113;-78
2021/05/06 09:25:34;;;;;;;4.85;1.25;;;16.40;99.90;;;;;;4991966;28;20105;-77
2021/05/06 09:28:22;;;;;;;5.55;1.67;;;16.40;99.90;;;;;;4992702;28;20026;-76
2021/05/06 09:30:55;;;;;;;14.15;1.98;;;16.60;99.90;;;;;;4990471;28;20038;-77
2021/05/06 09:33:33;;;;;;;3.25;1.42;;;16.80;99.90;;;;;;4991915;28;20109;-77
2021/05/06 09:36:08;;;;;;;8.85;1.45;;;17.00;99.90;;;;;;4992555;28;20359;-76
2021/05/06 09:38:39;;;;;;;8.63;1.63;;;17.00;99.90;;;;;;4992459;28;20492;-79
2021/05/06 09:41:06;;;;;;;5.45;1.10;;;17.20;99.90;;;;;;4992350;28;20046;-76
2021/05/06 09:43:40;;;;;;;5.00;1.35;;;17.20;99.90;;;;;;4992517;28;20038;-76
2021/05/06 09:46:30;;;;;;;5.25;1.65;;;17.10;99.90;;;;;;4992252;28;20076;-77
2021/05/06 09:49:09;;;;;;;3.45;1.52;;;17.10;99.90;;;;;;4991836;28;20026;-77
2021/05/06 09:52:01;;;;;;;3.58;1.40;;;17.20;99.90;;;;;;4992270;28;20043;-77
2021/05/06 09:54:28;;;;;;;2.85;1.20;;;17.20;99.90;;;;;;4991109;28;20042;-77
2021/05/06 09:56:58;;;;;;;12.80;1.58;;;17.20;99.90;;;;;;4992942;28;20085;-78
2021/05/06 09:59:27;;;;;;;3.50;1.63;;;17.40;99.90;;;;;;4991652;28;20029;-78
2021/05/06 10:01:53;;;;;;;6.00;1.45;;;17.70;99.90;;;;;;4992190;28;20475;-79
2021/05/06 10:04:21;;;;;;;11.73;1.55;;;18.00;99.90;;;;;;4991737;28;20109;-77
2021/05/06 10:07:21;;;;;;;5.30;1.13;;;18.10;99.90;;;;;;4991974;28;20068;-78
2021/05/06 10:09:53;;;;;;;3.47;1.40;;;18.00;99.90;;;;;;4991184;28;20096;-77
2021/05/06 10:12:19;;;;;;;6.32;2.15;;;18.00;99.90;;;;;;4991932;28;20565;-77
2021/05/06 10:14:49;;;;;;;5.65;1.60;;;17.90;99.90;;;;;;4991900;28;20080;-76
2021/05/06 10:17:17;;;;;;;3.75;1.48;;;17.90;99.90;;;;;;4989620;28;20030;-77
2021/05/06 10:19:43;;;;;;;4.13;1.17;;;17.90;99.90;;;;;;4990521;28;20039;-77
2021/05/06 10:22:11;;;;;;;3.85;1.33;;;18.00;99.90;;;;;;4991809;28;20045;-77
2021/05/06 10:24:43;;;;;;;3.40;1.65;;;18.00;99.90;;;;;;4991680;28;20034;-77
2021/05/06 10:27:17;;;;;;;2.97;1.38;;;17.90;99.90;;;;;;4989855;28;20470;-77
2021/05/06 10:29:43;;;;;;;6.15;1.52;;;17.80;99.90;;;;;;4989175;28;20026;-77
2021/05/06 10:32:11;;;;;;;4.97;1.80;;;17.70;99.90;;;;;;4991118;28;20514;-77
2021/05/06 10:34:38;;;;;;;6.13;1.30;;;17.60;99.90;;;;;;4991633;28;20572;-77
2021/05/06 10:37:04;;;;;;;8.57;1.55;;;17.60;99.90;;;;;;4994271;28;20034;-77
2021/05/06 10:39:37;;;;;;;5.18;2.00;;;17.30;99.90;;;;;;4995431;28;20038;-77
2021/05/06 10:42:27;;;;;;;6.22;1.60;;;17.20;99.90;;;;;;4995658;28;20085;-75
2021/05/06 10:45:01;;;;;;;2.13;1.10;;;17.20;99.90;;;;;;4994936;28;20502;-76
2021/05/06 10:47:49;;;;;;;2.75;1.20;;;17.00;99.90;;;;;;4992355;28;20030;-77
2021/05/06 10:50:35;;;;;;;2.38;1.13;;;16.90;99.90;;;;;;4989985;28;20391;-77
2021/05/06 10:53:02;;;;;;;1.85;0.90;;;17.00;99.90;;;;;;4995386;28;20114;-77
2021/05/06 10:55:43;;;;;;;5.57;1.05;;;17.10;99.90;;;;;;4995124;28;20631;-77
2021/05/06 10:58:27;;;;;;;2.45;1.27;;;17.10;99.90;;;;;;4993921;28;20109;-77
2021/05/06 11:01:17;;;;;;;3.03;1.20;;;17.10;99.90;;;;;;4994492;28;20022;-76
2021/05/06 11:03:43;;;;;;;3.75;1.35;;;17.20;99.90;;;;;;4982428;28;20055;-78
2021/05/06 11:06:33;;;;;;;3.55;1.40;;;17.20;99.90;;;;;;4994619;28;20031;-77
2021/05/06 11:08:58;;;;;;;5.10;1.30;;;17.20;99.90;;;;;;4994118;28;20022;-78
2021/05/06 11:11:24;;;;;;;16.58;1.30;;;17.20;99.90;;;;;;4976309;28;20097;-77
2021/05/06 11:14:05;;;;;;;6.55;1.52;;;17.30;99.90;;;;;;4993959;28;20114;-77
2021/05/06 11:16:31;;;;;;;3.65;1.70;;;17.40;99.90;;;;;;4993206;28;20038;-77
2021/05/06 11:18:57;;;;;;;2.75;1.60;;;17.70;99.90;;;;;;4994626;28;20109;-78
2021/05/06 11:21:33;;;;;;;9.23;2.25;;;17.80;99.90;;;;;;4994102;28;20101;-77
2021/05/06 11:24:17;;;;;;;4.47;1.50;;;17.80;99.90;;;;;;4994318;28;20022;-77
2021/05/06 11:29:38;;;;;;;5.40;1.70;;;18.00;99.90;;;;;;4993363;28;20034;-77
2021/05/06 11:32:05;;;;;;;4.72;1.42;;;18.10;99.90;;;;;;4991652;28;20081;-78
2021/05/06 11:34:35;;;;;;;8.88;1.63;;;18.10;99.90;;;;;;4993853;28;20034;-78
2021/05/06 11:37:28;;;;;;;6.60;1.60;;;18.10;99.90;;;;;;4993964;28;20483;-78
2021/05/06 11:40:18;;;;;;;6.20;1.75;;;18.10;99.90;;;;;;4987404;28;20061;-77
2021/05/06 11:42:44;;;;;;;13.40;1.98;;;18.30;99.90;;;;;;4993682;28;20061;-79
2021/05/06 11:45:19;;;;;;;13.55;2.40;;;18.30;99.90;;;;;;4993931;28;20026;-78
2021/05/06 11:47:46;;;;;;;7.57;1.92;;;18.30;99.90;;;;;;4991685;28;20038;-78
2021/05/06 11:50:25;;;;;;;3.17;1.50;;;18.40;99.90;;;;;;4993561;28;20030;-77
2021/05/06 11:52:52;;;;;;;24.92;2.60;;;18.40;99.90;;;;;;4992718;28;20394;-77
2021/05/06 11:55:31;;;;;;;8.93;2.05;;;18.40;99.90;;;;;;4992451;28;20030;-77
2021/05/06 11:57:57;;;;;;;16.20;1.77;;;18.30;99.90;;;;;;4994113;28;20038;-76
2021/05/06 12:00:31;;;;;;;8.38;1.70;;;18.20;99.90;;;;;;4993903;28;20039;-78
2021/05/06 12:03:10;;;;;;;12.57;2.03;;;18.10;99.90;;;;;;4994068;28;20030;-77
2021/05/06 12:05:56;;;;;;;21.75;2.00;;;18.10;99.90;;;;;;4992657;28;20042;-78
2021/05/06 12:08:25;;;;;;;11.98;1.60;;;18.00;99.90;;;;;;4993855;28;20073;-79
2021/05/06 12:10:53;;;;;;;15.98;2.25;;;17.90;99.90;;;;;;4992181;28;20373;-79
2021/05/06 12:13:26;;;;;;;6.13;1.50;;;18.00;99.90;;;;;;4993224;28;20034;-77
2021/05/06 12:15:52;;;;;;;10.00;1.73;;;18.10;99.90;;;;;;4992759;28;20113;-79
2021/05/06 12:18:22;;;;;;;8.75;1.58;;;18.20;99.90;;;;;;4992557;28;20117;-78
2021/05/06 12:20:56;;;;;;;3.00;1.70;;;18.40;99.90;;;;;;4992680;28;20031;-78
2021/05/06 12:23:24;;;;;;;8.80;1.60;;;18.30;99.90;;;;;;4991842;28;20072;-80
2021/05/06 12:25:50;;;;;;;8.88;2.40;;;18.20;99.90;;;;;;4992707;28;20684;-78
2021/05/06 12:28:16;;;;;;;9.23;2.03;;;18.20;99.90;;;;;;4992875;28;20085;-78
2021/05/06 12:30:42;;;;;;;9.85;2.10;;;18.20;99.90;;;;;;4992370;28;20030;-80
2021/05/06 12:33:08;;;;;;;3.88;1.42;;;18.20;99.90;;;;;;4992884;28;20089;-78
2021/05/06 12:35:48;;;;;;;3.78;1.85;;;18.30;99.90;;;;;;4986756;28;20058;-78
2021/05/06 12:38:15;;;;;;;10.77;1.80;;;18.50;99.90;;;;;;4989475;28;20448;-77
2021/05/06 12:40:41;;;;;;;4.00;1.70;;;18.70;99.90;;;;;;4992635;28;20036;-76
2021/05/06 12:43:30;;;;;;;6.25;1.42;;;18.90;99.90;;;;;;4990827;28;20386;-78
2021/05/06 12:46:08;;;;;;;12.40;1.73;;;19.00;99.90;;;;;;4992757;28;20135;-78
2021/05/06 12:48:58;;;;;;;4.38;1.40;;;19.20;99.90;;;;;;4996829;28;20038;-78
2021/05/06 12:51:31;;;;;;;7.90;1.90;;;19.40;99.90;;;;;;4979378;28;20352;-80
2021/05/06 12:53:58;;;;;;;6.78;1.40;;;19.40;99.90;;;;;;4990281;28;20018;-77
2021/05/06 12:56:26;;;;;;;6.90;1.90;;;19.50;99.90;;;;;;4992429;28;20046;-78
2021/05/06 12:58:51;;;;;;;6.47;1.98;;;19.60;99.90;;;;;;4991179;28;20106;-77
2021/05/06 13:01:29;;;;;;;10.45;2.08;;;19.70;99.90;;;;;;4991459;28;20118;-77
2021/05/06 13:04:00;;;;;;;20.17;1.85;;;19.70;99.90;;;;;;4992172;28;20058;-77
2021/05/06 13:06:31;;;;;;;9.77;2.05;;;19.80;99.90;;;;;;4990389;28;20565;-77
2021/05/06 13:08:59;;;;;;;;;;;19.80;99.90;;;;;;4992228;28;20678;-77
2021/05/06 13:11:25;;;;;;;9.18;2.03;;;19.90;99.90;;;;;;4974510;28;19918;-79
2021/05/06 13:13:53;;;;;;;9.32;1.88;;;20.10;99.90;;;;;;4990537;28;20053;-76
2021/05/06 13:16:45;;;;;;;5.90;2.08;;;20.10;99.90;;;;;;4988702;28;20038;-76
2021/05/06 13:19:14;;;;;;;5.85;1.77;;;20.20;99.90;;;;;;4991337;28;20037;-78
2021/05/06 13:21:52;;;;;;;11.20;2.42;;;20.30;99.90;;;;;;4990913;28;20146;-78
2021/05/06 13:24:18;;;;;;;9.90;2.47;;;20.60;99.90;;;;;;4991239;28;20049;-76
2021/05/06 13:26:46;;;;;;;16.73;2.60;;;20.90;99.90;;;;;;4992675;28;20491;-78
2021/05/06 13:29:17;;;;;;;14.45;2.45;;;21.00;99.90;;;;;;4991770;28;20019;-76
2021/05/06 13:31:48;;;;;;;8.30;2.53;;;21.00;99.90;;;;;;4980300;28;20039;-78
2021/05/06 13:34:26;;;;;;;6.43;2.13;;;21.10;99.90;;;;;;4991807;28;20026;-80
2021/05/06 13:37:03;;;;;;;10.43;2.63;;;21.10;99.90;;;;;;4991990;28;20092;-78
2021/05/06 13:39:33;;;;;;;12.52;2.70;;;21.10;99.90;;;;;;4992252;28;20061;-79
2021/05/06 13:41:59;;;;;;;8.32;1.98;;;20.90;99.90;;;;;;4974597;28;20039;-78
2021/05/06 13:44:28;;;;;;;9.82;2.03;;;20.80;99.90;;;;;;4991615;28;20034;-80
2021/05/06 13:46:56;;;;;;;9.68;2.38;;;20.90;99.90;;;;;;4991216;28;20025;-81
2021/05/06 13:49:26;;;;;;;14.70;2.90;;;21.00;99.90;;;;;;4991773;28;20094;-78
2021/05/06 13:51:53;;;;;;;10.98;2.25;;;21.00;99.90;;;;;;4991807;28;20534;-75
2021/05/06 13:54:20;;;;;;;14.90;2.75;;;21.00;99.90;;;;;;4991584;28;20046;-76
2021/05/06 13:56:46;;;;;;;12.15;2.25;;;21.00;99.90;;;;;;4992236;28;20062;-80
2021/05/06 13:59:12;;;;;;;8.48;2.50;;;20.90;99.90;;;;;;4991128;28;20118;-78
2021/05/06 14:01:39;;;;;;;15.85;3.17;;;20.80;99.90;;;;;;4991562;28;20431;-79
2021/05/06 14:04:05;;;;;;;14.20;3.03;;;20.80;99.90;;;;;;4991861;28;20030;-78
2021/05/06 14:06:31;;;;;;;15.88;2.40;;;20.80;99.90;;;;;;4991206;28;20092;-79
2021/05/06 14:08:57;;;;;;;13.88;2.60;;;20.70;99.90;;;;;;4991822;28;20070;-81
2021/05/06 14:11:26;;;;;;;14.02;4.60;;;20.70;99.90;;;;;;4993697;28;20074;-82
2021/05/06 14:13:57;;;;;;;12.55;2.47;;;20.70;99.90;;;;;;4994492;28;20598;-77
2021/05/06 14:16:23;;;;;;;18.48;2.72;;;20.70;99.90;;;;;;4977263;28;20038;-79
2021/05/06 14:18:54;;;;;;;11.90;3.20;;;20.70;99.90;;;;;;4977461;28;20390;-77
2021/05/06 14:21:22;;;;;;;17.13;2.63;;;20.70;99.90;;;;;;4995700;28;20483;-80
2021/05/06 14:23:48;;;;;;;15.10;3.35;;;20.70;99.90;;;;;;4995394;28;20089;-77
2021/05/06 14:26:14;;;;;;;17.67;2.80;;;20.70;99.90;;;;;;4994881;28;20018;-80
2021/05/06 14:28:41;;;;;;;27.23;3.38;;;20.70;99.90;;;;;;4992727;28;20035;-80
2021/05/06 14:31:09;;;;;;;9.05;2.50;;;20.70;99.90;;;;;;4995111;28;20050;-80
2021/05/06 14:33:34;;;;;;;15.93;3.08;;;20.60;99.90;;;;;;4994321;28;20041;-81
2021/05/06 14:36:00;;;;;;;11.70;2.40;;;20.60;99.90;;;;;;4994603;28;20039;-75
2021/05/06 14:38:26;;;;;;;15.73;2.90;;;20.60;99.90;;;;;;4994752;28;20031;-80
2021/05/06 14:40:51;;;;;;;14.65;2.97;;;20.70;99.90;;;;;;4993977;28;20036;-81
2021/05/06 14:43:17;;;;;;;8.95;2.55;;;20.70;99.90;;;;;;4994879;28;20045;-79
2021/05/06 14:45:43;;;;;;;10.63;2.70;;;20.70;99.90;;;;;;4994444;28;20113;-79
2021/05/06 14:48:10;;;;;;;12.88;3.05;;;20.70;99.90;;;;;;4994512;28;20043;-78
2021/05/06 14:50:37;;;;;;;16.10;2.33;;;20.70;99.90;;;;;;4994060;28;20026;-79
2021/05/06 14:53:02;;;;;;;11.90;3.13;;;20.70;99.90;;;;;;4994729;28;20534;-79
2021/05/06 14:55:28;;;;;;;15.10;2.58;;;20.70;99.90;;;;;;4994718;28;20049;-78
2021/05/06 14:57:54;;;;;;;18.77;2.75;;;20.70;99.90;;;;;;4994901;28;20118;-81
2021/05/06 15:00:21;;;;;;;11.88;2.80;;;20.60;99.90;;;;;;4994432;28;20030;-80
2021/05/06 15:02:48;;;;;;;10.20;2.55;;;20.60;99.90;;;;;;4994000;28;20038;-76
2021/05/06 15:05:14;;;;;;;20.23;3.63;;;20.50;99.90;;;;;;4993394;28;20039;-80
2021/05/06 15:07:40;;;;;;;11.15;3.30;;;20.50;99.90;;;;;;4991175;28;20030;-77
2021/05/06 15:10:07;;;;;;;17.48;2.92;;;20.50;99.90;;;;;;4993877;28;20049;-79
2021/05/06 15:12:34;;;;;;;11.00;3.10;;;20.40;99.90;;;;;;4991586;28;20043;-80
2021/05/06 15:15:04;;;;;;;17.23;3.60;;;20.30;99.90;;;;;;4990104;28;20029;-77
2021/05/06 15:17:30;;;;;;;12.15;3.10;;;20.30;99.90;;;;;;4986882;28;20042;-81
2021/05/06 15:19:56;;;;;;;16.23;3.30;;;20.40;99.90;;;;;;4993265;28;20394;-76
2021/05/06 15:22:22;;;;;;;24.55;3.33;;;20.30;99.90;;;;;;4992313;28;20031;-76
2021/05/06 15:24:48;;;;;;;14.38;3.03;;;20.30;99.90;;;;;;4993860;28;20038;-74
2021/05/06 15:27:14;;;;;;;20.52;3.10;;;20.30;99.90;;;;;;4990442;28;20702;-76
2021/05/06 15:29:41;;;;;;;13.30;2.72;;;20.30;99.90;;;;;;4978822;28;20061;-76
2021/05/06 15:32:07;;;;;;;21.05;3.50;;;20.20;99.90;;;;;;4986061;28;20037;-79
2021/05/06 15:34:33;;;;;;;19.60;3.40;;;20.10;99.90;;;;;;4991305;28;20118;-81
2021/05/06 15:36:58;;;;;;;16.35;3.10;;;20.00;99.90;;;;;;4992020;28;20031;-81
2021/05/06 15:39:24;;;;;;;23.15;3.70;;;19.90;99.90;;;;;;4991694;28;20137;-77
2021/05/06 15:41:50;;;;;;;19.30;3.85;;;19.90;99.90;;;;;;4990859;28;20062;-78
2021/05/06 15:44:16;;;;;;;12.65;3.63;;;19.80;99.90;;;;;;4988973;28;20065;-75
2021/05/06 15:46:41;;;;;;;15.48;3.22;;;19.60;99.90;;;;;;4988694;28;20088;-77
2021/05/06 15:49:08;;;;;;;14.93;3.30;;;19.50;99.90;;;;;;4984503;28;20042;-79
2021/05/06 15:51:34;;;;;;;26.67;4.05;;;19.40;99.90;;;;;;4987398;28;20038;-76
2021/05/06 15:53:59;;;;;;;21.92;3.80;;;19.30;99.90;;;;;;4984434;28;20096;-81
2021/05/06 15:56:26;;;;;;;14.02;2.90;;;19.30;99.90;;;;;;4984732;28;20058;-78
2021/05/06 15:58:53;;;;;;;10.43;3.13;;;19.30;99.90;;;;;;4974162;28;20517;-75
2021/05/06 16:01:20;;;;;;;15.50;3.20;;;19.30;99.90;;;;;;4989386;28;20060;-80
2021/05/06 16:03:52;;;;;;;18.95;3.38;;;19.20;99.90;;;;;;4993534;28;20014;-74
2021/05/06 16:06:18;;;;;;;16.02;3.22;;;19.20;99.90;;;;;;4987783;28;20038;-77
2021/05/06 16:08:44;;;;;;;18.13;3.80;;;19.20;99.90;;;;;;4991715;28;20034;-77
2021/05/06 16:11:11;;;;;;;18.65;3.53;;;19.30;99.90;;;;;;4987924;28;20038;-75
2021/05/06 16:13:36;;;;;;;20.17;3.83;;;19.30;99.90;;;;;;4982153;28;20039;-79
2021/05/06 16:16:02;;;;;;;19.35;3.65;;;19.30;99.90;;;;;;4992513;28;20565;-77
2021/05/06 16:18:28;;;;;;;18.10;3.65;;;19.30;99.90;;;;;;4988798;28;20498;-76
2021/05/06 16:20:54;;;;;;;15.82;3.45;;;19.40;99.90;;;;;;4990993;28;20035;-76
2021/05/06 16:23:20;;;;;;;39.55;19.95;;;19.50;99.90;;;;;;4986259;28;20034;-77
2021/05/06 16:25:46;;;;;;;49.63;22.30;;;19.50;99.90;;;;;;4988674;28;20041;-76
2021/05/06 16:28:12;;;;;;;15.82;3.83;;;19.60;99.90;;;;;;4990234;28;20030;-81
2021/05/06 16:30:38;;;;;;;16.88;4.20;;;19.70;99.90;;;;;;4980985;28;20054;-81